Terminal Aerodrome Forecast
Issued by NWS

Home | Current Version | Previous Version | Graphics & Text | Print | Product List | Glossary On
Versions: 1 2 3 4 5 6 7 8 9 10 11 12 13 14 15
000
FTUS41 KCLE 171328 AAA
TAFFDY
TAF AMD
KFDY 171328Z 1713/1812 24006KT P6SM OVC009
      TEMPO 1713/1715 2SM -SHSN OVC006
     FM171500 25008KT P6SM BKN045
     FM171900 25012KT P6SM SCT040 BKN100=

USA.gov is the U.S. government's official web portal to all federal, state and local government web resources and services.